sensor_id;sensor_type;location;lat;lon;timestamp;P1;durP1;ratioP1;P2;durP2;ratioP2
53267;SDS011;39156;51.176;6.738;2023-02-28T00:01:28;46.55;;;44.05;;
53267;SDS011;39156;51.176;6.738;2023-02-28T00:03:54;47.03;;;44.38;;
53267;SDS011;39156;51.176;6.738;2023-02-28T00:06:20;47.20;;;44.50;;
53267;SDS011;39156;51.176;6.738;2023-02-28T00:08:46;46.17;;;43.58;;
53267;SDS011;39156;51.176;6.738;2023-02-28T00:11:13;46.22;;;43.63;;
53267;SDS011;39156;51.176;6.738;2023-02-28T00:13:41;46.42;;;43.85;;
53267;SDS011;39156;51.176;6.738;2023-02-28T00:16:18;46.40;;;43.80;;
53267;SDS011;39156;51.176;6.738;2023-02-28T00:18:46;46.28;;;43.65;;
53267;SDS011;39156;51.176;6.738;2023-02-28T00:21:12;46.58;;;43.97;;
53267;SDS011;39156;51.176;6.738;2023-02-28T00:23:38;46.72;;;44.13;;
53267;SDS011;39156;51.176;6.738;2023-02-28T00:26:04;46.47;;;43.88;;
53267;SDS011;39156;51.176;6.738;2023-02-28T00:28:30;45.80;;;43.28;;
53267;SDS011;39156;51.176;6.738;2023-02-28T00:30:56;46.45;;;43.72;;
53267;SDS011;39156;51.176;6.738;2023-02-28T00:33:22;47.22;;;44.53;;
53267;SDS011;39156;51.176;6.738;2023-02-28T00:35:48;47.15;;;44.40;;
53267;SDS011;39156;51.176;6.738;2023-02-28T00:38:14;47.00;;;44.40;;
53267;SDS011;39156;51.176;6.738;2023-02-28T00:40:40;46.77;;;44.00;;
53267;SDS011;39156;51.176;6.738;2023-02-28T00:43:06;49.28;;;46.58;;
53267;SDS011;39156;51.176;6.738;2023-02-28T00:45:32;46.78;;;44.10;;
53267;SDS011;39156;51.176;6.738;2023-02-28T00:47:57;46.75;;;44.10;;
53267;SDS011;39156;51.176;6.738;2023-02-28T00:50:23;47.88;;;45.10;;
53267;SDS011;39156;51.176;6.738;2023-02-28T00:52:49;46.55;;;43.85;;
53267;SDS011;39156;51.176;6.738;2023-02-28T00:55:14;46.22;;;43.63;;
53267;SDS011;39156;51.176;6.738;2023-02-28T00:57:40;46.28;;;43.67;;
53267;SDS011;39156;51.176;6.738;2023-02-28T01:00:06;45.95;;;43.45;;
53267;SDS011;39156;51.176;6.738;2023-02-28T01:02:33;47.67;;;44.97;;
53267;SDS011;39156;51.176;6.738;2023-02-28T01:04:59;47.38;;;44.78;;
53267;SDS011;39156;51.176;6.738;2023-02-28T01:07:25;47.30;;;44.50;;
53267;SDS011;39156;51.176;6.738;2023-02-28T01:09:50;46.75;;;44.15;;
53267;SDS011;39156;51.176;6.738;2023-02-28T01:12:16;47.33;;;44.60;;
53267;SDS011;39156;51.176;6.738;2023-02-28T01:14:42;47.60;;;44.90;;
53267;SDS011;39156;51.176;6.738;2023-02-28T01:17:08;46.83;;;44.15;;
53267;SDS011;39156;51.176;6.738;2023-02-28T01:19:34;49.25;;;46.33;;
53267;SDS011;39156;51.176;6.738;2023-02-28T01:22:01;47.10;;;44.50;;
53267;SDS011;39156;51.176;6.738;2023-02-28T01:24:28;46.97;;;44.28;;
53267;SDS011;39156;51.176;6.738;2023-02-28T01:26:54;47.85;;;45.10;;
53267;SDS011;39156;51.176;6.738;2023-02-28T01:29:20;47.20;;;44.60;;
53267;SDS011;39156;51.176;6.738;2023-02-28T01:31:46;47.90;;;45.28;;
53267;SDS011;39156;51.176;6.738;2023-02-28T01:34:11;47.08;;;44.38;;
53267;SDS011;39156;51.176;6.738;2023-02-28T01:36:37;47.53;;;44.83;;
53267;SDS011;39156;51.176;6.738;2023-02-28T01:39:03;46.97;;;44.33;;
53267;SDS011;39156;51.176;6.738;2023-02-28T01:41:31;47.97;;;45.28;;
53267;SDS011;39156;51.176;6.738;2023-02-28T01:44:00;45.72;;;43.22;;
53267;SDS011;39156;51.176;6.738;2023-02-28T01:46:32;46.30;;;43.80;;
53267;SDS011;39156;51.176;6.738;2023-02-28T01:49:01;48.05;;;45.42;;
53267;SDS011;39156;51.176;6.738;2023-02-28T01:51:35;47.42;;;44.80;;
53267;SDS011;39156;51.176;6.738;2023-02-28T01:54:11;47.60;;;44.78;;
53267;SDS011;39156;51.176;6.738;2023-02-28T01:56:47;47.55;;;44.75;;
53267;SDS011;39156;51.176;6.738;2023-02-28T01:59:22;47.72;;;44.88;;
53267;SDS011;39156;51.176;6.738;2023-02-28T02:01:59;48.78;;;45.90;;
53267;SDS011;39156;51.176;6.738;2023-02-28T02:04:27;48.80;;;45.97;;
53267;SDS011;39156;51.176;6.738;2023-02-28T02:07:02;48.22;;;45.42;;
53267;SDS011;39156;51.176;6.738;2023-02-28T02:09:29;48.63;;;45.58;;
53267;SDS011;39156;51.176;6.738;2023-02-28T02:11:55;49.20;;;46.30;;
53267;SDS011;39156;51.176;6.738;2023-02-28T02:14:37;49.95;;;47.10;;
53267;SDS011;39156;51.176;6.738;2023-02-28T02:18:00;49.13;;;46.33;;
53267;SDS011;39156;51.176;6.738;2023-02-28T02:20:59;48.75;;;45.85;;
53267;SDS011;39156;51.176;6.738;2023-02-28T02:23:26;48.53;;;45.65;;
53267;SDS011;39156;51.176;6.738;2023-02-28T02:26:13;47.53;;;44.80;;
53267;SDS011;39156;51.176;6.738;2023-02-28T02:34:59;48.15;;;45.53;;
53267;SDS011;39156;51.176;6.738;2023-02-28T02:37:40;48.90;;;46.00;;
53267;SDS011;39156;51.176;6.738;2023-02-28T02:40:27;48.97;;;46.08;;
53267;SDS011;39156;51.176;6.738;2023-02-28T02:43:01;48.38;;;45.67;;
53267;SDS011;39156;51.176;6.738;2023-02-28T02:45:51;49.53;;;46.63;;
53267;SDS011;39156;51.176;6.738;2023-02-28T02:48:21;47.65;;;44.95;;
53267;SDS011;39156;51.176;6.738;2023-02-28T02:50:54;47.97;;;45.25;;
53267;SDS011;39156;51.176;6.738;2023-02-28T02:53:25;48.17;;;45.33;;
53267;SDS011;39156;51.176;6.738;2023-02-28T02:55:57;48.00;;;45.30;;
53267;SDS011;39156;51.176;6.738;2023-02-28T02:58:26;48.47;;;45.58;;
53267;SDS011;39156;51.176;6.738;2023-02-28T03:00:58;48.22;;;45.53;;
53267;SDS011;39156;51.176;6.738;2023-02-28T03:03:26;48.45;;;45.70;;
53267;SDS011;39156;51.176;6.738;2023-02-28T03:05:58;49.92;;;47.08;;
53267;SDS011;39156;51.176;6.738;2023-02-28T03:08:26;48.13;;;45.42;;
53267;SDS011;39156;51.176;6.738;2023-02-28T03:10:57;48.25;;;45.55;;
53267;SDS011;39156;51.176;6.738;2023-02-28T03:20:01;48.90;;;45.72;;
53267;SDS011;39156;51.176;6.738;2023-02-28T03:25:54;49.55;;;46.80;;
53267;SDS011;39156;51.176;6.738;2023-02-28T03:31:31;49.80;;;47.08;;
53267;SDS011;39156;51.176;6.738;2023-02-28T03:34:10;49.85;;;47.05;;
53267;SDS011;39156;51.176;6.738;2023-02-28T03:36:55;49.38;;;46.28;;
53267;SDS011;39156;51.176;6.738;2023-02-28T03:39:32;49.63;;;46.83;;
53267;SDS011;39156;51.176;6.738;2023-02-28T03:42:06;49.72;;;46.90;;
53267;SDS011;39156;51.176;6.738;2023-02-28T03:44:51;48.28;;;45.63;;
53267;SDS011;39156;51.176;6.738;2023-02-28T03:52:28;48.92;;;46.13;;
53267;SDS011;39156;51.176;6.738;2023-02-28T03:55:00;48.88;;;46.17;;
53267;SDS011;39156;51.176;6.738;2023-02-28T03:57:34;48.88;;;46.17;;
53267;SDS011;39156;51.176;6.738;2023-02-28T04:00:18;48.50;;;45.72;;
53267;SDS011;39156;51.176;6.738;2023-02-28T04:02:53;48.60;;;45.70;;
53267;SDS011;39156;51.176;6.738;2023-02-28T04:05:20;48.75;;;45.95;;
53267;SDS011;39156;51.176;6.738;2023-02-28T04:07:46;50.78;;;47.85;;
53267;SDS011;39156;51.176;6.738;2023-02-28T04:10:13;48.53;;;45.70;;
53267;SDS011;39156;51.176;6.738;2023-02-28T04:12:40;49.60;;;46.80;;
53267;SDS011;39156;51.176;6.738;2023-02-28T04:15:06;48.20;;;45.45;;
53267;SDS011;39156;51.176;6.738;2023-02-28T04:17:33;48.50;;;45.80;;
53267;SDS011;39156;51.176;6.738;2023-02-28T04:19:58;48.47;;;45.88;;
53267;SDS011;39156;51.176;6.738;2023-02-28T04:22:24;49.17;;;46.38;;
53267;SDS011;39156;51.176;6.738;2023-02-28T04:24:51;48.50;;;45.80;;
53267;SDS011;39156;51.176;6.738;2023-02-28T04:29:44;48.58;;;45.78;;
53267;SDS011;39156;51.176;6.738;2023-02-28T04:32:10;48.92;;;46.10;;
53267;SDS011;39156;51.176;6.738;2023-02-28T04:34:36;48.13;;;45.53;;
53267;SDS011;39156;51.176;6.738;2023-02-28T04:37:01;48.60;;;45.90;;
53267;SDS011;39156;51.176;6.738;2023-02-28T04:39:28;51.47;;;48.72;;
53267;SDS011;39156;51.176;6.738;2023-02-28T04:41:54;48.93;;;46.00;;
53267;SDS011;39156;51.176;6.738;2023-02-28T04:44:21;47.88;;;45.17;;
53267;SDS011;39156;51.176;6.738;2023-02-28T04:46:48;50.45;;;47.67;;
53267;SDS011;39156;51.176;6.738;2023-02-28T04:49:14;48.67;;;45.97;;
53267;SDS011;39156;51.176;6.738;2023-02-28T04:51:40;48.90;;;46.10;;
53267;SDS011;39156;51.176;6.738;2023-02-28T04:54:06;47.83;;;45.23;;
53267;SDS011;39156;51.176;6.738;2023-02-28T04:56:32;48.72;;;46.03;;
53267;SDS011;39156;51.176;6.738;2023-02-28T04:58:58;48.40;;;45.70;;
53267;SDS011;39156;51.176;6.738;2023-02-28T05:01:28;48.70;;;46.10;;
53267;SDS011;39156;51.176;6.738;2023-02-28T05:03:57;49.85;;;46.88;;
53267;SDS011;39156;51.176;6.738;2023-02-28T05:06:27;48.15;;;45.47;;
53267;SDS011;39156;51.176;6.738;2023-02-28T05:08:55;50.00;;;47.10;;
53267;SDS011;39156;51.176;6.738;2023-02-28T05:11:23;49.13;;;46.33;;
53267;SDS011;39156;51.176;6.738;2023-02-28T05:13:54;48.85;;;46.15;;
53267;SDS011;39156;51.176;6.738;2023-02-28T05:16:20;48.47;;;45.80;;
53267;SDS011;39156;51.176;6.738;2023-02-28T05:18:46;49.40;;;46.70;;
53267;SDS011;39156;51.176;6.738;2023-02-28T05:21:22;48.97;;;46.17;;
53267;SDS011;39156;51.176;6.738;2023-02-28T05:23:57;49.28;;;46.65;;
53267;SDS011;39156;51.176;6.738;2023-02-28T05:26:28;48.92;;;46.22;;
53267;SDS011;39156;51.176;6.738;2023-02-28T05:28:54;49.15;;;46.45;;
53267;SDS011;39156;51.176;6.738;2023-02-28T05:31:20;49.17;;;46.37;;
53267;SDS011;39156;51.176;6.738;2023-02-28T05:33:46;49.30;;;46.60;;
53267;SDS011;39156;51.176;6.738;2023-02-28T05:36:12;49.00;;;46.28;;
53267;SDS011;39156;51.176;6.738;2023-02-28T05:38:38;49.85;;;46.85;;
53267;SDS011;39156;51.176;6.738;2023-02-28T05:41:05;49.60;;;46.70;;
53267;SDS011;39156;51.176;6.738;2023-02-28T05:43:33;48.70;;;46.00;;
53267;SDS011;39156;51.176;6.738;2023-02-28T05:46:01;48.20;;;45.60;;
53267;SDS011;39156;51.176;6.738;2023-02-28T05:48:34;49.92;;;47.13;;
53267;SDS011;39156;51.176;6.738;2023-02-28T05:51:02;48.80;;;46.20;;
53267;SDS011;39156;51.176;6.738;2023-02-28T05:53:28;50.55;;;47.83;;
53267;SDS011;39156;51.176;6.738;2023-02-28T05:55:55;49.45;;;46.17;;
53267;SDS011;39156;51.176;6.738;2023-02-28T05:58:21;50.58;;;47.78;;
53267;SDS011;39156;51.176;6.738;2023-02-28T06:00:47;49.33;;;46.50;;
53267;SDS011;39156;51.176;6.738;2023-02-28T06:03:13;50.10;;;47.20;;
53267;SDS011;39156;51.176;6.738;2023-02-28T06:05:39;48.97;;;46.17;;
53267;SDS011;39156;51.176;6.738;2023-02-28T06:08:04;49.95;;;47.15;;
53267;SDS011;39156;51.176;6.738;2023-02-28T06:13:03;49.70;;;46.83;;
53267;SDS011;39156;51.176;6.738;2023-02-28T06:15:30;50.13;;;47.22;;
53267;SDS011;39156;51.176;6.738;2023-02-28T06:17:56;49.58;;;46.72;;
53267;SDS011;39156;51.176;6.738;2023-02-28T06:20:23;49.13;;;46.42;;
53267;SDS011;39156;51.176;6.738;2023-02-28T06:22:53;50.22;;;47.53;;
53267;SDS011;39156;51.176;6.738;2023-02-28T06:25:26;49.00;;;46.30;;
53267;SDS011;39156;51.176;6.738;2023-02-28T06:27:52;50.40;;;47.40;;
53267;SDS011;39156;51.176;6.738;2023-02-28T06:30:19;49.33;;;46.73;;
53267;SDS011;39156;51.176;6.738;2023-02-28T06:32:48;49.83;;;46.67;;
53267;SDS011;39156;51.176;6.738;2023-02-28T06:35:14;49.13;;;46.42;;
53267;SDS011;39156;51.176;6.738;2023-02-28T06:37:43;48.95;;;46.15;;
53267;SDS011;39156;51.176;6.738;2023-02-28T06:40:12;50.67;;;47.22;;
53267;SDS011;39156;51.176;6.738;2023-02-28T06:42:38;49.38;;;46.58;;
53267;SDS011;39156;51.176;6.738;2023-02-28T06:45:04;48.92;;;46.03;;
53267;SDS011;39156;51.176;6.738;2023-02-28T06:47:34;49.22;;;46.25;;
53267;SDS011;39156;51.176;6.738;2023-02-28T06:50:07;48.88;;;46.28;;
53267;SDS011;39156;51.176;6.738;2023-02-28T06:52:38;50.08;;;47.25;;
53267;SDS011;39156;51.176;6.738;2023-02-28T06:55:04;48.95;;;46.15;;
53267;SDS011;39156;51.176;6.738;2023-02-28T06:57:32;48.47;;;45.88;;
53267;SDS011;39156;51.176;6.738;2023-02-28T07:00:00;49.60;;;46.90;;
53267;SDS011;39156;51.176;6.738;2023-02-28T07:02:34;49.10;;;46.30;;
53267;SDS011;39156;51.176;6.738;2023-02-28T07:05:02;48.17;;;45.53;;
53267;SDS011;39156;51.176;6.738;2023-02-28T07:07:29;51.08;;;48.00;;
53267;SDS011;39156;51.176;6.738;2023-02-28T07:09:55;48.72;;;46.08;;
53267;SDS011;39156;51.176;6.738;2023-02-28T07:12:21;48.25;;;45.65;;
53267;SDS011;39156;51.176;6.738;2023-02-28T07:14:47;47.90;;;45.30;;
53267;SDS011;39156;51.176;6.738;2023-02-28T07:17:12;47.75;;;45.25;;
53267;SDS011;39156;51.176;6.738;2023-02-28T07:19:38;47.72;;;45.22;;
53267;SDS011;39156;51.176;6.738;2023-02-28T07:22:04;46.97;;;44.38;;
53267;SDS011;39156;51.176;6.738;2023-02-28T07:24:31;48.77;;;46.17;;
53267;SDS011;39156;51.176;6.738;2023-02-28T07:26:57;47.67;;;45.03;;
53267;SDS011;39156;51.176;6.738;2023-02-28T07:29:22;49.42;;;46.55;;
53267;SDS011;39156;51.176;6.738;2023-02-28T07:31:48;48.83;;;46.00;;
53267;SDS011;39156;51.176;6.738;2023-02-28T07:34:17;50.55;;;47.50;;
53267;SDS011;39156;51.176;6.738;2023-02-28T07:36:44;46.92;;;44.38;;
53267;SDS011;39156;51.176;6.738;2023-02-28T07:39:10;46.97;;;44.47;;
53267;SDS011;39156;51.176;6.738;2023-02-28T07:41:35;46.97;;;44.47;;
53267;SDS011;39156;51.176;6.738;2023-02-28T07:44:07;49.60;;;46.88;;
53267;SDS011;39156;51.176;6.738;2023-02-28T07:49:01;46.90;;;44.20;;
53267;SDS011;39156;51.176;6.738;2023-02-28T07:51:28;47.33;;;44.72;;
53267;SDS011;39156;51.176;6.738;2023-02-28T07:53:54;48.28;;;44.88;;
53267;SDS011;39156;51.176;6.738;2023-02-28T07:56:20;47.40;;;44.80;;
53267;SDS011;39156;51.176;6.738;2023-02-28T07:58:46;46.33;;;43.72;;
53267;SDS011;39156;51.176;6.738;2023-02-28T08:01:12;47.17;;;44.65;;
53267;SDS011;39156;51.176;6.738;2023-02-28T08:03:39;46.13;;;43.47;;
53267;SDS011;39156;51.176;6.738;2023-02-28T08:06:05;46.88;;;44.22;;
53267;SDS011;39156;51.176;6.738;2023-02-28T08:08:33;45.53;;;43.03;;
53267;SDS011;39156;51.176;6.738;2023-02-28T08:10:59;44.30;;;41.80;;
53267;SDS011;39156;51.176;6.738;2023-02-28T08:13:27;43.95;;;41.50;;
53267;SDS011;39156;51.176;6.738;2023-02-28T08:15:54;42.70;;;40.42;;
53267;SDS011;39156;51.176;6.738;2023-02-28T08:18:21;39.83;;;37.63;;
53267;SDS011;39156;51.176;6.738;2023-02-28T08:20:47;41.75;;;39.55;;
53267;SDS011;39156;51.176;6.738;2023-02-28T08:23:13;38.70;;;36.60;;
53267;SDS011;39156;51.176;6.738;2023-02-28T08:25:40;38.97;;;36.87;;
53267;SDS011;39156;51.176;6.738;2023-02-28T08:28:05;39.28;;;37.17;;
53267;SDS011;39156;51.176;6.738;2023-02-28T08:30:31;38.05;;;35.80;;
53267;SDS011;39156;51.176;6.738;2023-02-28T08:32:57;36.40;;;34.40;;
53267;SDS011;39156;51.176;6.738;2023-02-28T08:35:23;38.42;;;36.33;;
53267;SDS011;39156;51.176;6.738;2023-02-28T08:37:49;36.50;;;34.60;;
53267;SDS011;39156;51.176;6.738;2023-02-28T08:40:15;34.70;;;32.72;;
53267;SDS011;39156;51.176;6.738;2023-02-28T08:42:44;37.22;;;35.08;;
53267;SDS011;39156;51.176;6.738;2023-02-28T08:45:10;36.58;;;34.58;;
53267;SDS011;39156;51.176;6.738;2023-02-28T08:47:37;33.17;;;31.42;;
53267;SDS011;39156;51.176;6.738;2023-02-28T08:50:03;33.45;;;31.75;;
53267;SDS011;39156;51.176;6.738;2023-02-28T08:52:30;34.63;;;32.83;;
53267;SDS011;39156;51.176;6.738;2023-02-28T08:54:56;34.20;;;32.47;;
53267;SDS011;39156;51.176;6.738;2023-02-28T08:57:22;37.73;;;35.83;;
53267;SDS011;39156;51.176;6.738;2023-02-28T08:59:48;34.05;;;32.25;;
53267;SDS011;39156;51.176;6.738;2023-02-28T09:02:14;36.20;;;34.30;;
53267;SDS011;39156;51.176;6.738;2023-02-28T09:04:40;34.10;;;32.30;;
53267;SDS011;39156;51.176;6.738;2023-02-28T09:07:05;32.78;;;31.05;;
53267;SDS011;39156;51.176;6.738;2023-02-28T09:09:31;33.00;;;31.30;;
53267;SDS011;39156;51.176;6.738;2023-02-28T09:11:58;33.38;;;31.63;;
53267;SDS011;39156;51.176;6.738;2023-02-28T09:14:24;34.17;;;32.38;;
53267;SDS011;39156;51.176;6.738;2023-02-28T09:16:49;34.45;;;32.65;;
53267;SDS011;39156;51.176;6.738;2023-02-28T09:19:15;34.45;;;32.60;;
53267;SDS011;39156;51.176;6.738;2023-02-28T09:21:41;34.78;;;32.95;;
53267;SDS011;39156;51.176;6.738;2023-02-28T09:24:07;32.83;;;31.13;;
53267;SDS011;39156;51.176;6.738;2023-02-28T09:26:32;33.60;;;31.83;;
53267;SDS011;39156;51.176;6.738;2023-02-28T09:28:59;34.37;;;32.47;;
53267;SDS011;39156;51.176;6.738;2023-02-28T09:31:26;32.88;;;31.17;;
53267;SDS011;39156;51.176;6.738;2023-02-28T09:33:54;35.38;;;33.58;;
53267;SDS011;39156;51.176;6.738;2023-02-28T09:36:22;34.15;;;32.35;;
53267;SDS011;39156;51.176;6.738;2023-02-28T09:38:49;35.40;;;33.05;;
53267;SDS011;39156;51.176;6.738;2023-02-28T09:41:23;34.97;;;33.17;;
53267;SDS011;39156;51.176;6.738;2023-02-28T09:43:54;33.83;;;32.13;;
53267;SDS011;39156;51.176;6.738;2023-02-28T09:49:06;35.60;;;33.75;;
53267;SDS011;39156;51.176;6.738;2023-02-28T09:54:17;35.58;;;33.67;;
53267;SDS011;39156;51.176;6.738;2023-02-28T09:56:51;37.22;;;35.33;;
53267;SDS011;39156;51.176;6.738;2023-02-28T10:05:17;37.20;;;35.20;;
53267;SDS011;39156;51.176;6.738;2023-02-28T10:10:39;39.35;;;37.25;;
53267;SDS011;39156;51.176;6.738;2023-02-28T10:13:13;40.25;;;38.00;;
53267;SDS011;39156;51.176;6.738;2023-02-28T10:16:31;38.22;;;35.58;;
53267;SDS011;39156;51.176;6.738;2023-02-28T10:19:19;37.92;;;35.83;;
53267;SDS011;39156;51.176;6.738;2023-02-28T10:24:46;38.78;;;36.78;;
53267;SDS011;39156;51.176;6.738;2023-02-28T10:27:23;38.47;;;36.13;;
53267;SDS011;39156;51.176;6.738;2023-02-28T10:29:54;38.80;;;36.80;;
53267;SDS011;39156;51.176;6.738;2023-02-28T10:32:25;38.60;;;36.60;;
53267;SDS011;39156;51.176;6.738;2023-02-28T10:37:51;38.28;;;36.28;;
53267;SDS011;39156;51.176;6.738;2023-02-28T10:42:59;37.70;;;35.70;;
53267;SDS011;39156;51.176;6.738;2023-02-28T10:45:31;35.55;;;33.65;;
53267;SDS011;39156;51.176;6.738;2023-02-28T10:48:02;37.13;;;35.05;;
53267;SDS011;39156;51.176;6.738;2023-02-28T11:01:15;36.05;;;34.05;;
53267;SDS011;39156;51.176;6.738;2023-02-28T11:03:50;36.45;;;34.55;;
53267;SDS011;39156;51.176;6.738;2023-02-28T11:11:52;40.78;;;38.58;;
53267;SDS011;39156;51.176;6.738;2023-02-28T11:14:22;38.63;;;36.45;;
53267;SDS011;39156;51.176;6.738;2023-02-28T11:17:00;39.05;;;37.03;;
53267;SDS011;39156;51.176;6.738;2023-02-28T11:19:44;39.42;;;37.22;;
53267;SDS011;39156;51.176;6.738;2023-02-28T11:22:16;38.60;;;36.45;;
53267;SDS011;39156;51.176;6.738;2023-02-28T11:24:55;38.72;;;36.72;;
53267;SDS011;39156;51.176;6.738;2023-02-28T11:29:56;37.90;;;35.95;;
53267;SDS011;39156;51.176;6.738;2023-02-28T11:32:24;37.60;;;35.70;;
53267;SDS011;39156;51.176;6.738;2023-02-28T11:37:34;39.40;;;37.25;;
53267;SDS011;39156;51.176;6.738;2023-02-28T11:40:01;39.90;;;37.80;;
53267;SDS011;39156;51.176;6.738;2023-02-28T11:42:43;41.92;;;39.72;;
53267;SDS011;39156;51.176;6.738;2023-02-28T11:45:45;40.40;;;38.30;;
53267;SDS011;39156;51.176;6.738;2023-02-28T11:48:27;38.83;;;36.83;;
53267;SDS011;39156;51.176;6.738;2023-02-28T11:51:27;38.70;;;36.70;;
53267;SDS011;39156;51.176;6.738;2023-02-28T11:54:11;39.78;;;37.67;;
53267;SDS011;39156;51.176;6.738;2023-02-28T11:56:48;39.45;;;37.45;;
53267;SDS011;39156;51.176;6.738;2023-02-28T12:10:35;40.35;;;38.25;;
53267;SDS011;39156;51.176;6.738;2023-02-28T12:13:48;40.70;;;38.60;;
53267;SDS011;39156;51.176;6.738;2023-02-28T12:21:48;39.45;;;37.35;;
53267;SDS011;39156;51.176;6.738;2023-02-28T12:24:44;39.33;;;37.22;;
53267;SDS011;39156;51.176;6.738;2023-02-28T12:27:25;38.97;;;36.78;;
53267;SDS011;39156;51.176;6.738;2023-02-28T12:29:57;41.75;;;39.55;;
53267;SDS011;39156;51.176;6.738;2023-02-28T12:38:02;38.60;;;36.50;;
53267;SDS011;39156;51.176;6.738;2023-02-28T12:40:50;39.17;;;37.08;;
53267;SDS011;39156;51.176;6.738;2023-02-28T12:43:22;39.10;;;37.10;;
53267;SDS011;39156;51.176;6.738;2023-02-28T12:45:57;38.55;;;36.55;;
53267;SDS011;39156;51.176;6.738;2023-02-28T12:48:30;41.80;;;39.60;;
53267;SDS011;39156;51.176;6.738;2023-02-28T12:51:05;39.17;;;37.10;;
53267;SDS011;39156;51.176;6.738;2023-02-28T12:56:17;40.83;;;38.60;;
53267;SDS011;39156;51.176;6.738;2023-02-28T12:59:39;42.80;;;40.50;;
53267;SDS011;39156;51.176;6.738;2023-02-28T13:11:05;39.28;;;37.17;;
53267;SDS011;39156;51.176;6.738;2023-02-28T13:13:31;40.28;;;38.10;;
53267;SDS011;39156;51.176;6.738;2023-02-28T13:16:05;39.88;;;37.72;;
53267;SDS011;39156;51.176;6.738;2023-02-28T13:21:10;41.67;;;39.45;;
53267;SDS011;39156;51.176;6.738;2023-02-28T13:23:59;40.35;;;38.20;;
53267;SDS011;39156;51.176;6.738;2023-02-28T13:34:41;41.45;;;39.15;;
53267;SDS011;39156;51.176;6.738;2023-02-28T13:43:06;41.95;;;39.75;;
53267;SDS011;39156;51.176;6.738;2023-02-28T13:45:33;39.72;;;37.53;;
53267;SDS011;39156;51.176;6.738;2023-02-28T13:48:14;39.92;;;37.83;;
53267;SDS011;39156;51.176;6.738;2023-02-28T13:50:43;40.28;;;38.08;;
53267;SDS011;39156;51.176;6.738;2023-02-28T13:55:43;41.60;;;39.40;;
53267;SDS011;39156;51.176;6.738;2023-02-28T14:06:46;39.95;;;37.80;;
53267;SDS011;39156;51.176;6.738;2023-02-28T14:09:30;42.20;;;40.00;;
53267;SDS011;39156;51.176;6.738;2023-02-28T14:17:53;38.88;;;36.78;;
53267;SDS011;39156;51.176;6.738;2023-02-28T14:20:20;40.67;;;38.58;;
53267;SDS011;39156;51.176;6.738;2023-02-28T14:31:37;40.20;;;37.90;;
53267;SDS011;39156;51.176;6.738;2023-02-28T14:34:25;41.83;;;39.53;;
53267;SDS011;39156;51.176;6.738;2023-02-28T14:37:04;40.30;;;38.08;;
53267;SDS011;39156;51.176;6.738;2023-02-28T14:39:32;40.78;;;38.58;;
53267;SDS011;39156;51.176;6.738;2023-02-28T14:41:59;40.92;;;38.63;;
53267;SDS011;39156;51.176;6.738;2023-02-28T14:44:29;43.10;;;40.80;;
53267;SDS011;39156;51.176;6.738;2023-02-28T14:46:56;42.03;;;39.72;;
53267;SDS011;39156;51.176;6.738;2023-02-28T14:49:30;40.45;;;38.15;;
53267;SDS011;39156;51.176;6.738;2023-02-28T14:52:13;39.67;;;37.58;;
53267;SDS011;39156;51.176;6.738;2023-02-28T14:54:42;41.78;;;39.33;;
53267;SDS011;39156;51.176;6.738;2023-02-28T15:02:39;42.22;;;39.72;;
53267;SDS011;39156;51.176;6.738;2023-02-28T15:07:37;42.45;;;40.03;;
53267;SDS011;39156;51.176;6.738;2023-02-28T15:10:07;42.40;;;40.20;;
53267;SDS011;39156;51.176;6.738;2023-02-28T15:12:46;40.75;;;38.63;;
53267;SDS011;39156;51.176;6.738;2023-02-28T15:21:20;42.85;;;40.55;;
53267;SDS011;39156;51.176;6.738;2023-02-28T15:23:52;41.28;;;38.85;;
53267;SDS011;39156;51.176;6.738;2023-02-28T15:26:24;39.92;;;37.80;;
53267;SDS011;39156;51.176;6.738;2023-02-28T15:28:59;42.17;;;39.78;;
53267;SDS011;39156;51.176;6.738;2023-02-28T15:31:34;41.42;;;39.03;;
53267;SDS011;39156;51.176;6.738;2023-02-28T15:34:06;41.35;;;39.08;;
53267;SDS011;39156;51.176;6.738;2023-02-28T15:36:43;41.38;;;39.10;;
53267;SDS011;39156;51.176;6.738;2023-02-28T15:39:19;40.80;;;38.60;;
53267;SDS011;39156;51.176;6.738;2023-02-28T15:41:52;40.50;;;38.00;;
53267;SDS011;39156;51.176;6.738;2023-02-28T15:44:38;41.30;;;39.10;;
53267;SDS011;39156;51.176;6.738;2023-02-28T15:47:05;42.47;;;40.17;;
53267;SDS011;39156;51.176;6.738;2023-02-28T15:49:40;42.22;;;39.92;;
53267;SDS011;39156;51.176;6.738;2023-02-28T15:52:16;41.67;;;39.45;;
53267;SDS011;39156;51.176;6.738;2023-02-28T15:54:49;43.10;;;40.85;;
53267;SDS011;39156;51.176;6.738;2023-02-28T15:57:33;41.92;;;39.63;;
53267;SDS011;39156;51.176;6.738;2023-02-28T16:00:00;42.75;;;40.38;;
53267;SDS011;39156;51.176;6.738;2023-02-28T16:02:35;40.70;;;38.53;;
53267;SDS011;39156;51.176;6.738;2023-02-28T16:07:34;40.13;;;38.03;;
53267;SDS011;39156;51.176;6.738;2023-02-28T16:10:02;40.47;;;38.22;;
53267;SDS011;39156;51.176;6.738;2023-02-28T16:12:29;43.17;;;40.67;;
53267;SDS011;39156;51.176;6.738;2023-02-28T16:14:59;41.17;;;38.88;;
53267;SDS011;39156;51.176;6.738;2023-02-28T16:17:34;41.05;;;38.85;;
53267;SDS011;39156;51.176;6.738;2023-02-28T16:20:25;40.85;;;38.58;;
53267;SDS011;39156;51.176;6.738;2023-02-28T16:22:52;43.78;;;41.38;;
53267;SDS011;39156;51.176;6.738;2023-02-28T16:25:20;43.50;;;41.20;;
53267;SDS011;39156;51.176;6.738;2023-02-28T16:27:54;42.75;;;40.53;;
53267;SDS011;39156;51.176;6.738;2023-02-28T16:30:23;39.80;;;37.60;;
53267;SDS011;39156;51.176;6.738;2023-02-28T16:32:51;41.70;;;39.38;;
53267;SDS011;39156;51.176;6.738;2023-02-28T16:35:19;41.33;;;39.08;;
53267;SDS011;39156;51.176;6.738;2023-02-28T16:37:46;42.40;;;40.15;;
53267;SDS011;39156;51.176;6.738;2023-02-28T16:42:43;41.85;;;39.55;;
53267;SDS011;39156;51.176;6.738;2023-02-28T16:45:14;41.33;;;39.03;;
53267;SDS011;39156;51.176;6.738;2023-02-28T16:47:47;42.38;;;40.08;;
53267;SDS011;39156;51.176;6.738;2023-02-28T16:50:17;42.10;;;39.65;;
53267;SDS011;39156;51.176;6.738;2023-02-28T16:52:48;40.83;;;38.53;;
53267;SDS011;39156;51.176;6.738;2023-02-28T16:55:17;43.30;;;40.90;;
53267;SDS011;39156;51.176;6.738;2023-02-28T16:57:43;42.53;;;40.03;;
53267;SDS011;39156;51.176;6.738;2023-02-28T17:00:15;42.70;;;40.20;;
53267;SDS011;39156;51.176;6.738;2023-02-28T17:02:41;41.88;;;39.30;;
53267;SDS011;39156;51.176;6.738;2023-02-28T17:05:08;43.95;;;41.42;;
53267;SDS011;39156;51.176;6.738;2023-02-28T17:07:36;43.75;;;41.28;;
53267;SDS011;39156;51.176;6.738;2023-02-28T17:10:04;43.35;;;41.05;;
53267;SDS011;39156;51.176;6.738;2023-02-28T17:12:49;42.30;;;39.92;;
53267;SDS011;39156;51.176;6.738;2023-02-28T17:15:16;41.88;;;39.47;;
53267;SDS011;39156;51.176;6.738;2023-02-28T17:17:43;42.08;;;39.78;;
53267;SDS011;39156;51.176;6.738;2023-02-28T17:20:14;43.42;;;41.00;;
53267;SDS011;39156;51.176;6.738;2023-02-28T17:22:42;43.58;;;41.08;;
53267;SDS011;39156;51.176;6.738;2023-02-28T17:25:08;42.30;;;39.90;;
53267;SDS011;39156;51.176;6.738;2023-02-28T17:27:35;42.13;;;39.85;;
53267;SDS011;39156;51.176;6.738;2023-02-28T17:30:03;42.15;;;39.85;;
53267;SDS011;39156;51.176;6.738;2023-02-28T17:32:42;42.67;;;40.38;;